sensor_id;sensor_type;location;lat;lon;timestamp;P1;durP1;ratioP1;P2;durP2;ratioP2
76393;SDS011;65216;51.090;-115.352;2023-02-25T00:01:49;10.20;;;1.10;;
76393;SDS011;65216;51.090;-115.352;2023-02-25T00:04:16;8.60;;;1.30;;
76393;SDS011;65216;51.090;-115.352;2023-02-25T00:06:43;7.80;;;1.30;;
76393;SDS011;65216;51.090;-115.352;2023-02-25T00:09:14;6.10;;;1.30;;
76393;SDS011;65216;51.090;-115.352;2023-02-25T00:11:44;13.50;;;1.70;;
76393;SDS011;65216;51.090;-115.352;2023-02-25T00:14:11;17.50;;;1.60;;
76393;SDS011;65216;51.090;-115.352;2023-02-25T00:16:41;14.00;;;1.40;;
76393;SDS011;65216;51.090;-115.352;2023-02-25T00:19:11;14.40;;;1.40;;
76393;SDS011;65216;51.090;-115.352;2023-02-25T00:21:39;11.80;;;1.40;;
76393;SDS011;65216;51.090;-115.352;2023-02-25T00:24:06;10.30;;;1.30;;
76393;SDS011;65216;51.090;-115.352;2023-02-25T00:26:34;14.10;;;1.70;;
76393;SDS011;65216;51.090;-115.352;2023-02-25T00:29:01;14.90;;;1.60;;
76393;SDS011;65216;51.090;-115.352;2023-02-25T00:31:31;15.00;;;1.50;;
76393;SDS011;65216;51.090;-115.352;2023-02-25T00:33:58;10.00;;;1.50;;
76393;SDS011;65216;51.090;-115.352;2023-02-25T00:36:26;11.90;;;1.40;;
76393;SDS011;65216;51.090;-115.352;2023-02-25T00:38:55;13.70;;;1.60;;
76393;SDS011;65216;51.090;-115.352;2023-02-25T00:41:27;7.40;;;1.30;;
76393;SDS011;65216;51.090;-115.352;2023-02-25T00:44:00;11.80;;;1.70;;
76393;SDS011;65216;51.090;-115.352;2023-02-25T00:46:29;13.40;;;1.50;;
76393;SDS011;65216;51.090;-115.352;2023-02-25T00:49:00;14.80;;;1.80;;
76393;SDS011;65216;51.090;-115.352;2023-02-25T00:51:29;15.50;;;1.50;;
76393;SDS011;65216;51.090;-115.352;2023-02-25T00:54:00;11.00;;;1.50;;
76393;SDS011;65216;51.090;-115.352;2023-02-25T00:56:28;11.60;;;1.50;;
76393;SDS011;65216;51.090;-115.352;2023-02-25T00:58:55;12.40;;;1.60;;
76393;SDS011;65216;51.090;-115.352;2023-02-25T01:01:30;13.60;;;1.40;;
76393;SDS011;65216;51.090;-115.352;2023-02-25T01:04:03;15.10;;;1.50;;
76393;SDS011;65216;51.090;-115.352;2023-02-25T01:06:32;13.20;;;1.30;;
76393;SDS011;65216;51.090;-115.352;2023-02-25T01:09:00;12.50;;;1.70;;
76393;SDS011;65216;51.090;-115.352;2023-02-25T01:11:32;15.30;;;1.70;;
76393;SDS011;65216;51.090;-115.352;2023-02-25T01:14:11;11.40;;;1.60;;
76393;SDS011;65216;51.090;-115.352;2023-02-25T01:16:44;20.40;;;1.90;;
76393;SDS011;65216;51.090;-115.352;2023-02-25T01:19:16;16.80;;;1.50;;
76393;SDS011;65216;51.090;-115.352;2023-02-25T01:21:52;17.10;;;1.90;;
76393;SDS011;65216;51.090;-115.352;2023-02-25T01:24:32;17.10;;;1.90;;
76393;SDS011;65216;51.090;-115.352;2023-02-25T01:27:01;14.60;;;1.60;;
76393;SDS011;65216;51.090;-115.352;2023-02-25T01:29:34;17.00;;;1.60;;
76393;SDS011;65216;51.090;-115.352;2023-02-25T01:32:06;11.20;;;1.60;;
76393;SDS011;65216;51.090;-115.352;2023-02-25T01:34:35;15.20;;;1.60;;
76393;SDS011;65216;51.090;-115.352;2023-02-25T01:37:05;13.60;;;1.50;;
76393;SDS011;65216;51.090;-115.352;2023-02-25T01:39:33;19.40;;;1.70;;
76393;SDS011;65216;51.090;-115.352;2023-02-25T01:42:04;17.40;;;2.20;;
76393;SDS011;65216;51.090;-115.352;2023-02-25T01:47:49;13.20;;;1.70;;
76393;SDS011;65216;51.090;-115.352;2023-02-25T01:50:30;13.20;;;1.40;;
76393;SDS011;65216;51.090;-115.352;2023-02-25T01:53:39;17.20;;;2.00;;
76393;SDS011;65216;51.090;-115.352;2023-02-25T01:56:11;12.10;;;1.70;;
76393;SDS011;65216;51.090;-115.352;2023-02-25T01:58:46;13.60;;;2.00;;
76393;SDS011;65216;51.090;-115.352;2023-02-25T02:01:20;16.30;;;1.70;;
76393;SDS011;65216;51.090;-115.352;2023-02-25T02:03:51;16.50;;;1.80;;
76393;SDS011;65216;51.090;-115.352;2023-02-25T02:06:39;14.20;;;2.00;;
76393;SDS011;65216;51.090;-115.352;2023-02-25T02:09:12;16.70;;;1.80;;
76393;SDS011;65216;51.090;-115.352;2023-02-25T02:11:51;17.50;;;1.90;;
76393;SDS011;65216;51.090;-115.352;2023-02-25T02:14:32;16.00;;;1.80;;
76393;SDS011;65216;51.090;-115.352;2023-02-25T02:32:01;20.00;;;1.80;;
76393;SDS011;65216;51.090;-115.352;2023-02-25T02:37:37;16.00;;;1.70;;
76393;SDS011;65216;51.090;-115.352;2023-02-25T02:48:23;17.50;;;2.00;;
76393;SDS011;65216;51.090;-115.352;2023-02-25T02:51:07;14.00;;;2.20;;
76393;SDS011;65216;51.090;-115.352;2023-02-25T02:54:05;17.30;;;2.20;;
76393;SDS011;65216;51.090;-115.352;2023-02-25T02:56:37;14.30;;;1.60;;
76393;SDS011;65216;51.090;-115.352;2023-02-25T02:59:13;15.40;;;1.60;;
76393;SDS011;65216;51.090;-115.352;2023-02-25T03:01:53;15.80;;;1.70;;
76393;SDS011;65216;51.090;-115.352;2023-02-25T03:04:34;14.60;;;1.60;;
76393;SDS011;65216;51.090;-115.352;2023-02-25T03:07:07;18.00;;;1.90;;
76393;SDS011;65216;51.090;-115.352;2023-02-25T03:09:52;19.00;;;2.20;;
76393;SDS011;65216;51.090;-115.352;2023-02-25T03:12:23;24.60;;;2.60;;
76393;SDS011;65216;51.090;-115.352;2023-02-25T03:14:51;12.40;;;1.90;;
76393;SDS011;65216;51.090;-115.352;2023-02-25T03:17:27;19.70;;;1.90;;
76393;SDS011;65216;51.090;-115.352;2023-02-25T03:20:29;19.80;;;2.50;;
76393;SDS011;65216;51.090;-115.352;2023-02-25T03:23:06;16.20;;;2.10;;
76393;SDS011;65216;51.090;-115.352;2023-02-25T03:25:52;22.60;;;2.10;;
76393;SDS011;65216;51.090;-115.352;2023-02-25T03:28:26;15.40;;;2.20;;
76393;SDS011;65216;51.090;-115.352;2023-02-25T03:31:32;19.70;;;2.70;;
76393;SDS011;65216;51.090;-115.352;2023-02-25T03:34:10;21.70;;;2.60;;
76393;SDS011;65216;51.090;-115.352;2023-02-25T03:37:00;15.80;;;2.30;;
76393;SDS011;65216;51.090;-115.352;2023-02-25T03:39:37;23.70;;;2.20;;
76393;SDS011;65216;51.090;-115.352;2023-02-25T03:42:12;16.90;;;2.40;;
76393;SDS011;65216;51.090;-115.352;2023-02-25T03:44:51;20.90;;;2.40;;
76393;SDS011;65216;51.090;-115.352;2023-02-25T03:47:22;17.50;;;2.50;;
76393;SDS011;65216;51.090;-115.352;2023-02-25T03:50:01;16.80;;;2.20;;
76393;SDS011;65216;51.090;-115.352;2023-02-25T03:52:30;14.20;;;2.00;;
76393;SDS011;65216;51.090;-115.352;2023-02-25T03:54:58;25.00;;;2.40;;
76393;SDS011;65216;51.090;-115.352;2023-02-25T03:57:39;19.70;;;2.20;;
76393;SDS011;65216;51.090;-115.352;2023-02-25T04:00:22;16.70;;;2.30;;
76393;SDS011;65216;51.090;-115.352;2023-02-25T04:02:52;14.60;;;2.30;;
76393;SDS011;65216;51.090;-115.352;2023-02-25T04:05:21;17.90;;;2.00;;
76393;SDS011;65216;51.090;-115.352;2023-02-25T04:10:31;16.20;;;1.70;;
76393;SDS011;65216;51.090;-115.352;2023-02-25T04:13:02;18.00;;;2.30;;
76393;SDS011;65216;51.090;-115.352;2023-02-25T04:15:33;23.70;;;2.50;;
76393;SDS011;65216;51.090;-115.352;2023-02-25T04:18:01;22.10;;;2.50;;
76393;SDS011;65216;51.090;-115.352;2023-02-25T04:20:31;17.20;;;2.00;;
76393;SDS011;65216;51.090;-115.352;2023-02-25T04:23:00;19.70;;;2.10;;
76393;SDS011;65216;51.090;-115.352;2023-02-25T04:25:27;15.10;;;2.00;;
76393;SDS011;65216;51.090;-115.352;2023-02-25T04:27:57;15.70;;;2.50;;
76393;SDS011;65216;51.090;-115.352;2023-02-25T04:30:25;19.80;;;2.20;;
76393;SDS011;65216;51.090;-115.352;2023-02-25T04:32:53;23.80;;;2.50;;
76393;SDS011;65216;51.090;-115.352;2023-02-25T04:35:20;18.50;;;1.90;;
76393;SDS011;65216;51.090;-115.352;2023-02-25T04:37:50;20.60;;;2.40;;
76393;SDS011;65216;51.090;-115.352;2023-02-25T04:40:20;18.70;;;2.10;;
76393;SDS011;65216;51.090;-115.352;2023-02-25T04:42:53;16.80;;;1.80;;
76393;SDS011;65216;51.090;-115.352;2023-02-25T04:45:23;17.10;;;2.30;;
76393;SDS011;65216;51.090;-115.352;2023-02-25T04:47:56;18.70;;;2.50;;
76393;SDS011;65216;51.090;-115.352;2023-02-25T04:50:24;16.20;;;2.20;;
76393;SDS011;65216;51.090;-115.352;2023-02-25T04:52:51;16.40;;;1.90;;
76393;SDS011;65216;51.090;-115.352;2023-02-25T04:55:19;18.10;;;1.90;;
76393;SDS011;65216;51.090;-115.352;2023-02-25T04:57:46;18.80;;;2.30;;
76393;SDS011;65216;51.090;-115.352;2023-02-25T05:00:19;16.60;;;1.80;;
76393;SDS011;65216;51.090;-115.352;2023-02-25T05:02:52;10.80;;;1.80;;
76393;SDS011;65216;51.090;-115.352;2023-02-25T05:05:19;12.70;;;1.70;;
76393;SDS011;65216;51.090;-115.352;2023-02-25T05:07:46;10.50;;;1.50;;
76393;SDS011;65216;51.090;-115.352;2023-02-25T05:10:17;11.30;;;1.60;;
76393;SDS011;65216;51.090;-115.352;2023-02-25T05:12:44;12.80;;;1.50;;
76393;SDS011;65216;51.090;-115.352;2023-02-25T05:15:11;5.90;;;1.00;;
76393;SDS011;65216;51.090;-115.352;2023-02-25T05:17:39;4.80;;;1.00;;
76393;SDS011;65216;51.090;-115.352;2023-02-25T05:20:07;6.80;;;1.10;;
76393;SDS011;65216;51.090;-115.352;2023-02-25T05:22:39;8.10;;;1.10;;
76393;SDS011;65216;51.090;-115.352;2023-02-25T05:25:07;8.00;;;1.00;;
76393;SDS011;65216;51.090;-115.352;2023-02-25T05:27:35;7.00;;;1.30;;
76393;SDS011;65216;51.090;-115.352;2023-02-25T05:30:03;7.70;;;1.40;;
76393;SDS011;65216;51.090;-115.352;2023-02-25T05:32:31;8.00;;;1.40;;
76393;SDS011;65216;51.090;-115.352;2023-02-25T05:34:58;5.30;;;1.00;;
76393;SDS011;65216;51.090;-115.352;2023-02-25T05:37:29;7.90;;;1.10;;
76393;SDS011;65216;51.090;-115.352;2023-02-25T05:39:57;3.40;;;0.70;;
76393;SDS011;65216;51.090;-115.352;2023-02-25T05:42:25;4.90;;;0.90;;
76393;SDS011;65216;51.090;-115.352;2023-02-25T05:44:55;4.80;;;1.10;;
76393;SDS011;65216;51.090;-115.352;2023-02-25T05:47:22;5.60;;;0.90;;
76393;SDS011;65216;51.090;-115.352;2023-02-25T05:49:50;4.40;;;0.80;;
76393;SDS011;65216;51.090;-115.352;2023-02-25T05:52:17;4.50;;;1.00;;
76393;SDS011;65216;51.090;-115.352;2023-02-25T05:54:44;4.80;;;0.90;;
76393;SDS011;65216;51.090;-115.352;2023-02-25T05:57:13;4.10;;;0.90;;
76393;SDS011;65216;51.090;-115.352;2023-02-25T05:59:41;3.80;;;0.80;;
76393;SDS011;65216;51.090;-115.352;2023-02-25T06:02:08;4.00;;;0.90;;
76393;SDS011;65216;51.090;-115.352;2023-02-25T06:04:35;2.60;;;0.80;;
76393;SDS011;65216;51.090;-115.352;2023-02-25T06:07:03;3.80;;;0.90;;
76393;SDS011;65216;51.090;-115.352;2023-02-25T06:09:32;2.50;;;0.60;;
76393;SDS011;65216;51.090;-115.352;2023-02-25T06:12:02;5.10;;;0.80;;
76393;SDS011;65216;51.090;-115.352;2023-02-25T06:14:30;5.00;;;0.80;;
76393;SDS011;65216;51.090;-115.352;2023-02-25T06:16:57;3.10;;;0.70;;
76393;SDS011;65216;51.090;-115.352;2023-02-25T06:19:25;4.30;;;0.70;;
76393;SDS011;65216;51.090;-115.352;2023-02-25T06:21:53;2.20;;;0.60;;
76393;SDS011;65216;51.090;-115.352;2023-02-25T06:24:24;2.20;;;0.70;;
76393;SDS011;65216;51.090;-115.352;2023-02-25T06:26:51;3.50;;;0.70;;
76393;SDS011;65216;51.090;-115.352;2023-02-25T06:29:21;2.70;;;0.80;;
76393;SDS011;65216;51.090;-115.352;2023-02-25T06:31:49;3.60;;;0.70;;
76393;SDS011;65216;51.090;-115.352;2023-02-25T06:34:17;2.20;;;0.60;;
76393;SDS011;65216;51.090;-115.352;2023-02-25T06:36:47;4.00;;;0.70;;
76393;SDS011;65216;51.090;-115.352;2023-02-25T06:39:21;2.20;;;0.50;;
76393;SDS011;65216;51.090;-115.352;2023-02-25T06:41:52;0.70;;;0.50;;
76393;SDS011;65216;51.090;-115.352;2023-02-25T06:44:22;1.90;;;0.70;;
76393;SDS011;65216;51.090;-115.352;2023-02-25T06:46:50;2.10;;;0.50;;
76393;SDS011;65216;51.090;-115.352;2023-02-25T06:49:23;1.30;;;0.50;;
76393;SDS011;65216;51.090;-115.352;2023-02-25T06:51:51;1.60;;;0.60;;
76393;SDS011;65216;51.090;-115.352;2023-02-25T06:54:18;1.80;;;0.50;;
76393;SDS011;65216;51.090;-115.352;2023-02-25T06:56:45;0.90;;;0.50;;
76393;SDS011;65216;51.090;-115.352;2023-02-25T06:59:15;0.90;;;0.50;;
76393;SDS011;65216;51.090;-115.352;2023-02-25T07:01:43;4.20;;;0.70;;
76393;SDS011;65216;51.090;-115.352;2023-02-25T07:04:15;1.20;;;0.50;;
76393;SDS011;65216;51.090;-115.352;2023-02-25T07:06:44;1.60;;;0.60;;
76393;SDS011;65216;51.090;-115.352;2023-02-25T07:09:14;1.30;;;0.50;;
76393;SDS011;65216;51.090;-115.352;2023-02-25T07:11:41;2.20;;;0.50;;
76393;SDS011;65216;51.090;-115.352;2023-02-25T07:14:09;3.30;;;0.60;;
76393;SDS011;65216;51.090;-115.352;2023-02-25T07:16:39;1.10;;;0.40;;
76393;SDS011;65216;51.090;-115.352;2023-02-25T07:19:06;2.30;;;0.60;;
76393;SDS011;65216;51.090;-115.352;2023-02-25T07:21:34;2.00;;;0.60;;
76393;SDS011;65216;51.090;-115.352;2023-02-25T07:24:03;1.90;;;0.60;;
76393;SDS011;65216;51.090;-115.352;2023-02-25T07:26:31;1.30;;;0.60;;
76393;SDS011;65216;51.090;-115.352;2023-02-25T07:28:58;3.30;;;0.60;;
76393;SDS011;65216;51.090;-115.352;2023-02-25T07:31:27;1.10;;;0.50;;
76393;SDS011;65216;51.090;-115.352;2023-02-25T07:33:54;2.70;;;0.60;;
76393;SDS011;65216;51.090;-115.352;2023-02-25T07:36:27;1.80;;;0.60;;
76393;SDS011;65216;51.090;-115.352;2023-02-25T07:38:58;1.70;;;0.60;;
76393;SDS011;65216;51.090;-115.352;2023-02-25T07:41:27;0.90;;;0.40;;
76393;SDS011;65216;51.090;-115.352;2023-02-25T07:43:55;2.80;;;0.60;;
76393;SDS011;65216;51.090;-115.352;2023-02-25T07:46:22;1.40;;;0.50;;
76393;SDS011;65216;51.090;-115.352;2023-02-25T07:48:51;1.00;;;0.40;;
76393;SDS011;65216;51.090;-115.352;2023-02-25T07:51:20;2.40;;;0.70;;
76393;SDS011;65216;51.090;-115.352;2023-02-25T07:53:50;1.90;;;0.60;;
76393;SDS011;65216;51.090;-115.352;2023-02-25T07:56:19;1.40;;;0.40;;
76393;SDS011;65216;51.090;-115.352;2023-02-25T07:58:48;1.40;;;0.70;;
76393;SDS011;65216;51.090;-115.352;2023-02-25T08:01:19;2.00;;;0.50;;
76393;SDS011;65216;51.090;-115.352;2023-02-25T08:03:56;1.70;;;0.60;;
76393;SDS011;65216;51.090;-115.352;2023-02-25T08:06:25;1.50;;;0.60;;
76393;SDS011;65216;51.090;-115.352;2023-02-25T08:08:53;2.70;;;0.70;;
76393;SDS011;65216;51.090;-115.352;2023-02-25T08:11:25;1.40;;;0.60;;
76393;SDS011;65216;51.090;-115.352;2023-02-25T08:13:52;2.20;;;0.60;;
76393;SDS011;65216;51.090;-115.352;2023-02-25T08:16:21;3.00;;;0.70;;
76393;SDS011;65216;51.090;-115.352;2023-02-25T08:18:48;2.40;;;0.60;;
76393;SDS011;65216;51.090;-115.352;2023-02-25T08:21:19;1.20;;;0.60;;
76393;SDS011;65216;51.090;-115.352;2023-02-25T08:23:48;1.60;;;0.60;;
76393;SDS011;65216;51.090;-115.352;2023-02-25T08:26:25;2.40;;;0.60;;
76393;SDS011;65216;51.090;-115.352;2023-02-25T08:28:53;1.70;;;0.60;;
76393;SDS011;65216;51.090;-115.352;2023-02-25T08:31:22;1.00;;;0.50;;
76393;SDS011;65216;51.090;-115.352;2023-02-25T08:33:50;2.10;;;0.60;;
76393;SDS011;65216;51.090;-115.352;2023-02-25T08:36:27;1.20;;;0.50;;
76393;SDS011;65216;51.090;-115.352;2023-02-25T08:38:57;2.10;;;0.50;;
76393;SDS011;65216;51.090;-115.352;2023-02-25T08:41:28;1.20;;;0.50;;
76393;SDS011;65216;51.090;-115.352;2023-02-25T08:43:57;1.90;;;0.60;;
76393;SDS011;65216;51.090;-115.352;2023-02-25T08:46:27;1.30;;;0.60;;
76393;SDS011;65216;51.090;-115.352;2023-02-25T08:48:56;2.10;;;0.50;;
76393;SDS011;65216;51.090;-115.352;2023-02-25T08:51:32;1.20;;;0.50;;
76393;SDS011;65216;51.090;-115.352;2023-02-25T08:54:07;1.40;;;0.60;;
76393;SDS011;65216;51.090;-115.352;2023-02-25T08:56:40;3.40;;;0.50;;
76393;SDS011;65216;51.090;-115.352;2023-02-25T08:59:12;1.50;;;0.50;;
76393;SDS011;65216;51.090;-115.352;2023-02-25T09:01:41;1.30;;;0.50;;
76393;SDS011;65216;51.090;-115.352;2023-02-25T09:04:19;2.20;;;0.40;;
76393;SDS011;65216;51.090;-115.352;2023-02-25T09:06:50;0.70;;;0.50;;
76393;SDS011;65216;51.090;-115.352;2023-02-25T09:09:20;1.70;;;0.50;;
76393;SDS011;65216;51.090;-115.352;2023-02-25T09:11:47;0.60;;;0.30;;
76393;SDS011;65216;51.090;-115.352;2023-02-25T09:14:16;1.00;;;0.50;;
76393;SDS011;65216;51.090;-115.352;2023-02-25T09:16:44;1.20;;;0.60;;
76393;SDS011;65216;51.090;-115.352;2023-02-25T09:19:12;1.20;;;0.40;;
76393;SDS011;65216;51.090;-115.352;2023-02-25T09:21:46;0.70;;;0.50;;
76393;SDS011;65216;51.090;-115.352;2023-02-25T09:24:14;1.40;;;0.50;;
76393;SDS011;65216;51.090;-115.352;2023-02-25T09:26:42;1.20;;;0.50;;
76393;SDS011;65216;51.090;-115.352;2023-02-25T09:29:10;0.90;;;0.30;;
76393;SDS011;65216;51.090;-115.352;2023-02-25T09:31:37;0.90;;;0.60;;
76393;SDS011;65216;51.090;-115.352;2023-02-25T09:34:07;0.50;;;0.40;;
76393;SDS011;65216;51.090;-115.352;2023-02-25T09:36:38;0.50;;;0.30;;
76393;SDS011;65216;51.090;-115.352;2023-02-25T09:39:09;1.00;;;0.40;;
76393;SDS011;65216;51.090;-115.352;2023-02-25T09:44:21;1.20;;;0.50;;
76393;SDS011;65216;51.090;-115.352;2023-02-25T09:49:54;1.20;;;0.50;;
76393;SDS011;65216;51.090;-115.352;2023-02-25T09:52:33;0.80;;;0.30;;
76393;SDS011;65216;51.090;-115.352;2023-02-25T09:55:49;1.10;;;0.50;;
76393;SDS011;65216;51.090;-115.352;2023-02-25T10:00:45;1.40;;;0.80;;
76393;SDS011;65216;51.090;-115.352;2023-02-25T10:03:49;0.40;;;0.30;;
76393;SDS011;65216;51.090;-115.352;2023-02-25T10:09:28;0.30;;;0.30;;
76393;SDS011;65216;51.090;-115.352;2023-02-25T10:26:13;1.20;;;0.50;;
76393;SDS011;65216;51.090;-115.352;2023-02-25T10:28:49;1.00;;;0.50;;
76393;SDS011;65216;51.090;-115.352;2023-02-25T10:31:23;1.10;;;0.40;;
76393;SDS011;65216;51.090;-115.352;2023-02-25T10:33:53;0.70;;;0.40;;
76393;SDS011;65216;51.090;-115.352;2023-02-25T10:36:30;1.00;;;0.40;;
76393;SDS011;65216;51.090;-115.352;2023-02-25T10:39:00;0.70;;;0.30;;
76393;SDS011;65216;51.090;-115.352;2023-02-25T10:41:30;0.30;;;0.30;;
76393;SDS011;65216;51.090;-115.352;2023-02-25T10:43:57;0.30;;;0.30;;
76393;SDS011;65216;51.090;-115.352;2023-02-25T10:49:20;0.70;;;0.40;;
76393;SDS011;65216;51.090;-115.352;2023-02-25T10:52:13;0.60;;;0.40;;
76393;SDS011;65216;51.090;-115.352;2023-02-25T10:54:49;0.80;;;0.40;;
76393;SDS011;65216;51.090;-115.352;2023-02-25T10:57:38;1.40;;;0.40;;
76393;SDS011;65216;51.090;-115.352;2023-02-25T11:00:28;0.70;;;0.30;;
76393;SDS011;65216;51.090;-115.352;2023-02-25T11:03:02;0.70;;;0.30;;
76393;SDS011;65216;51.090;-115.352;2023-02-25T11:08:31;0.30;;;0.20;;
76393;SDS011;65216;51.090;-115.352;2023-02-25T11:11:17;1.00;;;0.40;;
76393;SDS011;65216;51.090;-115.352;2023-02-25T11:16:31;0.80;;;0.40;;
76393;SDS011;65216;51.090;-115.352;2023-02-25T11:19:08;1.00;;;0.40;;
76393;SDS011;65216;51.090;-115.352;2023-02-25T11:21:51;1.10;;;0.50;;
76393;SDS011;65216;51.090;-115.352;2023-02-25T11:24:32;0.90;;;0.30;;
76393;SDS011;65216;51.090;-115.352;2023-02-25T11:27:02;1.10;;;0.40;;
76393;SDS011;65216;51.090;-115.352;2023-02-25T11:29:41;1.30;;;0.50;;
76393;SDS011;65216;51.090;-115.352;2023-02-25T11:32:20;0.90;;;0.50;;
76393;SDS011;65216;51.090;-115.352;2023-02-25T11:34:54;0.90;;;0.50;;
76393;SDS011;65216;51.090;-115.352;2023-02-25T11:37:41;0.80;;;0.40;;
76393;SDS011;65216;51.090;-115.352;2023-02-25T11:40:29;0.70;;;0.30;;
76393;SDS011;65216;51.090;-115.352;2023-02-25T11:43:16;0.80;;;0.30;;
76393;SDS011;65216;51.090;-115.352;2023-02-25T11:46:01;0.60;;;0.30;;
76393;SDS011;65216;51.090;-115.352;2023-02-25T11:48:59;1.00;;;0.50;;
76393;SDS011;65216;51.090;-115.352;2023-02-25T11:51:38;0.80;;;0.40;;
76393;SDS011;65216;51.090;-115.352;2023-02-25T11:54:42;0.60;;;0.40;;
76393;SDS011;65216;51.090;-115.352;2023-02-25T11:57:24;1.30;;;0.50;;
76393;SDS011;65216;51.090;-115.352;2023-02-25T12:09:08;0.70;;;0.40;;
76393;SDS011;65216;51.090;-115.352;2023-02-25T12:21:52;0.80;;;0.50;;
76393;SDS011;65216;51.090;-115.352;2023-02-25T12:24:52;1.00;;;0.30;;
76393;SDS011;65216;51.090;-115.352;2023-02-25T12:27:50;0.50;;;0.40;;
76393;SDS011;65216;51.090;-115.352;2023-02-25T12:48:23;0.70;;;0.40;;
76393;SDS011;65216;51.090;-115.352;2023-02-25T12:51:20;0.40;;;0.30;;
76393;SDS011;65216;51.090;-115.352;2023-02-25T13:03:44;0.80;;;0.30;;
76393;SDS011;65216;51.090;-115.352;2023-02-25T13:10:05;1.50;;;0.40;;
76393;SDS011;65216;51.090;-115.352;2023-02-25T13:13:13;0.70;;;0.30;;
76393;SDS011;65216;51.090;-115.352;2023-02-25T13:16:20;1.00;;;0.40;;
76393;SDS011;65216;51.090;-115.352;2023-02-25T13:33:18;0.90;;;0.40;;
76393;SDS011;65216;51.090;-115.352;2023-02-25T13:39:21;0.50;;;0.20;;
76393;SDS011;65216;51.090;-115.352;2023-02-25T13:42:07;0.70;;;0.40;;
76393;SDS011;65216;51.090;-115.352;2023-02-25T13:48:10;0.70;;;0.30;;
76393;SDS011;65216;51.090;-115.352;2023-02-25T13:56:37;1.20;;;0.40;;
76393;SDS011;65216;51.090;-115.352;2023-02-25T14:08:19;0.60;;;0.30;;
76393;SDS011;65216;51.090;-115.352;2023-02-25T14:17:16;0.50;;;0.30;;
76393;SDS011;65216;51.090;-115.352;2023-02-25T14:26:10;0.90;;;0.40;;
76393;SDS011;65216;51.090;-115.352;2023-02-25T14:38:33;0.50;;;0.30;;
76393;SDS011;65216;51.090;-115.352;2023-02-25T14:42:00;0.70;;;0.40;;
76393;SDS011;65216;51.090;-115.352;2023-02-25T14:48:11;1.40;;;0.40;;
76393;SDS011;65216;51.090;-115.352;2023-02-25T15:00:24;0.90;;;0.50;;
76393;SDS011;65216;51.090;-115.352;2023-02-25T15:22:16;1.80;;;0.50;;
76393;SDS011;65216;51.090;-115.352;2023-02-25T15:24:44;1.10;;;0.40;;
76393;SDS011;65216;51.090;-115.352;2023-02-25T15:30:19;0.90;;;0.30;;
76393;SDS011;65216;51.090;-115.352;2023-02-25T15:35:52;0.70;;;0.40;;
76393;SDS011;65216;51.090;-115.352;2023-02-25T15:38:43;0.60;;;0.30;;
76393;SDS011;65216;51.090;-115.352;2023-02-25T15:51:49;1.40;;;0.40;;
76393;SDS011;65216;51.090;-115.352;2023-02-25T15:59:56;3.60;;;0.70;;
76393;SDS011;65216;51.090;-115.352;2023-02-25T16:11:31;2.20;;;0.60;;
76393;SDS011;65216;51.090;-115.352;2023-02-25T16:14:10;2.30;;;0.60;;
76393;SDS011;65216;51.090;-115.352;2023-02-25T16:16:48;5.30;;;1.00;;
76393;SDS011;65216;51.090;-115.352;2023-02-25T16:19:32;3.80;;;0.50;;
76393;SDS011;65216;51.090;-115.352;2023-02-25T16:22:16;4.60;;;0.80;;
76393;SDS011;65216;51.090;-115.352;2023-02-25T16:24:54;4.80;;;0.80;;
76393;SDS011;65216;51.090;-115.352;2023-02-25T16:39:44;4.80;;;0.80;;
76393;SDS011;65216;51.090;-115.352;2023-02-25T16:42:17;10.70;;;1.40;;
76393;SDS011;65216;51.090;-115.352;2023-02-25T16:45:01;7.20;;;1.10;;
76393;SDS011;65216;51.090;-115.352;2023-02-25T16:47:32;8.00;;;1.10;;
76393;SDS011;65216;51.090;-115.352;2023-02-25T16:50:12;7.40;;;1.00;;
76393;SDS011;65216;51.090;-115.352;2023-02-25T16:52:47;7.00;;;1.00;;
76393;SDS011;65216;51.090;-115.352;2023-02-25T16:55:21;7.70;;;1.30;;
76393;SDS011;65216;51.090;-115.352;2023-02-25T16:58:20;10.60;;;1.40;;
76393;SDS011;65216;51.090;-115.352;2023-02-25T17:00:57;7.00;;;1.00;;
76393;SDS011;65216;51.090;-115.352;2023-02-25T17:03:29;7.30;;;1.00;;
76393;SDS011;65216;51.090;-115.352;2023-02-25T17:06:13;9.30;;;1.50;;
76393;SDS011;65216;51.090;-115.352;2023-02-25T17:08:49;4.50;;;1.10;;
76393;SDS011;65216;51.090;-115.352;2023-02-25T17:11:22;6.50;;;1.00;;
76393;SDS011;65216;51.090;-115.352;2023-02-25T17:13:53;11.30;;;1.30;;
76393;SDS011;65216;51.090;-115.352;2023-02-25T17:16:31;7.00;;;1.10;;
76393;SDS011;65216;51.090;-115.352;2023-02-25T17:19:08;6.20;;;1.20;;
76393;SDS011;65216;51.090;-115.352;2023-02-25T17:21:41;5.60;;;0.90;;
76393;SDS011;65216;51.090;-115.352;2023-02-25T17:24:13;10.10;;;1.20;;
76393;SDS011;65216;51.090;-115.352;2023-02-25T17:26:47;7.90;;;1.30;;
76393;SDS011;65216;51.090;-115.352;2023-02-25T17:29:16;9.60;;;1.00;;
76393;SDS011;65216;51.090;-115.352;2023-02-25T17:31:48;6.00;;;1.10;;
76393;SDS011;65216;51.090;-115.352;2023-02-25T17:34:24;9.10;;;1.20;;
76393;SDS011;65216;51.090;-115.352;2023-02-25T17:37:02;7.10;;;1.40;;
76393;SDS011;65216;51.090;-115.352;2023-02-25T17:39:32;7.80;;;1.40;;
76393;SDS011;65216;51.090;-115.352;2023-02-25T17:42:00;11.40;;;1.40;;
76393;SDS011;65216;51.090;-115.352;2023-02-25T17:47:06;12.40;;;1.40;;
76393;SDS011;65216;51.090;-115.352;2023-02-25T17:49:37;10.50;;;1.50;;
76393;SDS011;65216;51.090;-115.352;2023-02-25T17:52:16;13.00;;;1.40;;
76393;SDS011;65216;51.090;-115.352;2023-02-25T17:54:53;9.70;;;1.20;;
76393;SDS011;65216;51.090;-115.352;2023-02-25T17:57:29;10.30;;;1.20;;
76393;SDS011;65216;51.090;-115.352;2023-02-25T18:00:07;8.60;;;1.70;;
76393;SDS011;65216;51.090;-115.352;2023-02-25T18:02:40;10.80;;;1.40;;
76393;SDS011;65216;51.090;-115.352;2023-02-25T18:07:40;9.30;;;1.30;;
76393;SDS011;65216;51.090;-115.352;2023-02-25T18:13:01;10.30;;;1.30;;
76393;SDS011;65216;51.090;-115.352;2023-02-25T18:15:42;11.00;;;1.70;;
76393;SDS011;65216;51.090;-115.352;2023-02-25T18:18:19;13.00;;;1.60;;
76393;SDS011;65216;51.090;-115.352;2023-02-25T18:20:47;9.10;;;1.00;;
76393;SDS011;65216;51.090;-115.352;2023-02-25T18:23:24;10.40;;;1.40;;
76393;SDS011;65216;51.090;-115.352;2023-02-25T18:28:53;10.50;;;1.40;;
76393;SDS011;65216;51.090;-115.352;2023-02-25T18:31:22;9.90;;;1.40;;
76393;SDS011;65216;51.090;-115.352;2023-02-25T18:33:58;9.40;;;1.20;;
76393;SDS011;65216;51.090;-115.352;2023-02-25T18:36:27;12.40;;;1.30;;
76393;SDS011;65216;51.090;-115.352;2023-02-25T18:38:58;11.60;;;1.20;;
76393;SDS011;65216;51.090;-115.352;2023-02-25T18:41:28;10.20;;;1.20;;
76393;SDS011;65216;51.090;-115.352;2023-02-25T18:43:55;8.60;;;1.40;;
76393;SDS011;65216;51.090;-115.352;2023-02-25T18:46:23;12.90;;;1.20;;
76393;SDS011;65216;51.090;-115.352;2023-02-25T18:48:50;15.00;;;1.50;;
76393;SDS011;65216;51.090;-115.352;2023-02-25T18:51:20;16.50;;;1.70;;
76393;SDS011;65216;51.090;-115.352;2023-02-25T18:53:47;11.70;;;1.10;;
76393;SDS011;65216;51.090;-115.352;2023-02-25T18:56:18;15.60;;;1.70;;
76393;SDS011;65216;51.090;-115.352;2023-02-25T18:58:46;11.50;;;1.40;;
76393;SDS011;65216;51.090;-115.352;2023-02-25T19:01:22;13.10;;;1.70;;
76393;SDS011;65216;51.090;-115.352;2023-02-25T19:03:53;13.50;;;1.50;;